Time;durP1;ratioP1;P1;durP2;ratioP2;P2;SDS_P1;SDS_P2;PMS_P1;PMS_P2;Temp;Humidity;BMP_temperature;BMP_pressure;BME280_temperature;BME280_humidity;BME280_pressure;Samples;Min_cycle;Max_cycle;Signal;HPM_P1;HPM_P2
2022/06/15 00:01:31;;;;;;;;;;;;;;;;;;5073358;28;20363;-84
2022/06/15 00:03:57;;;;;;;;;;;;;;;;;;5057036;28;20373;-87
2022/06/15 00:06:22;;;;;;;;;;;;;;;;;;5074159;28;19959;-87
2022/06/15 00:08:47;;;;;;;;;;;;;;;;;;5057123;28;19911;-87
2022/06/15 00:11:12;;;;;;;;;;;;;;;;;;5074229;28;19939;-86
2022/06/15 00:13:38;;;;;;;;;;;;;;;;;;5057540;28;19911;-89
2022/06/15 00:16:03;;;;;;;;;;;;;;;;;;5073857;28;19909;-87
2022/06/15 00:18:28;;;;;;;;;;;;;;;;;;5057245;28;19904;-86
2022/06/15 00:20:54;;;;;;;;;;;;;;;;;;5073811;28;19914;-88
2022/06/15 00:23:19;;;;;;;;;;;;;;;;;;5057116;28;19904;-89
2022/06/15 00:25:44;;;;;;;;;;;;;;;;;;5073760;28;20002;-88
2022/06/15 00:28:10;;;;;;;;;;;;;;;;;;5057144;28;20305;-88
2022/06/15 00:30:35;;;;;;;;;;;;;;;;;;5074074;28;19912;-87
2022/06/15 00:33:00;;;;;;;;;;;;;;;;;;5057001;28;19967;-85
2022/06/15 00:35:26;;;;;;;;;;;;;;;;;;5073861;28;20329;-87
2022/06/15 00:37:51;;;;;;;;;;;;;;;;;;5057066;28;19904;-86
2022/06/15 00:40:17;;;;;;;;;;;;;;;;;;5073563;28;19944;-87
2022/06/15 00:42:42;;;;;;;;;;;;;;;;;;5056753;28;19927;-85
2022/06/15 00:45:07;;;;;;;;;;;;;;;;;;5073484;28;19916;-87
2022/06/15 00:47:33;;;;;;;;;;;;;;;;;;5056718;28;20363;-87
2022/06/15 00:49:58;;;;;;;;;;;;;;;;;;5073424;28;20146;-85
2022/06/15 00:52:24;;;;;;;;;;;;;;;;;;5056664;28;20361;-87
2022/06/15 00:54:50;;;;;;;;;;;;;;;;;;5073248;28;19915;-86
2022/06/15 00:57:15;;;;;;;;;;;;;;;;;;5056684;28;20002;-88
2022/06/15 00:59:40;;;;;;;;;;;;;;;;;;5073611;28;19931;-88
2022/06/15 01:02:05;;;;;;;;;;;;;;;;;;5057050;28;19911;-85
2022/06/15 01:04:31;;;;;;;;;;;;;;;;;;5073303;28;19917;-86
2022/06/15 01:06:56;;;;;;;;;;;;;;;;;;5056513;28;19909;-85
2022/06/15 01:09:22;;;;;;;;;;;;;;;;;;5073295;28;19909;-88
2022/06/15 01:11:47;;;;;;;;;;;;;;;;;;5056410;28;19908;-85
2022/06/15 01:14:12;;;;;;;;;;;;;;;;;;5073025;28;19908;-86
2022/06/15 01:16:38;;;;;;;;;;;;;;;;;;5056465;28;19904;-87
2022/06/15 01:19:04;;;;;;;;;;;;;;;;;;5073179;28;20007;-85
2022/06/15 01:21:29;;;;;;;;;;;;;;;;;;5074200;28;19904;-88
2022/06/15 01:23:55;;;;;;;;;;;;;;;;;;5072772;28;19927;-88
2022/06/15 01:26:20;;;;;;;;;;;;;;;;;;5056319;28;19904;-85
2022/06/15 01:28:45;;;;;;;;;;;;;;;;;;5073196;28;19908;-87
2022/06/15 01:31:11;;;;;;;;;;;;;;;;;;5061642;28;19973;-86
2022/06/15 01:33:39;;;;;;;;;;;;;;;;;;5079999;28;20338;-87
2022/06/15 01:36:04;;;;;;;;;;;;;;;;;;5079594;28;19904;-88
2022/06/15 01:38:29;;;;;;;;;;;;;;;;;;5079859;28;20007;-89
2022/06/15 01:40:55;;;;;;;;;;;;;;;;;;5079676;28;19911;-87
2022/06/15 01:43:20;;;;;;;;;;;;;;;;;;5079549;28;19908;-87
2022/06/15 01:45:45;;;;;;;;;;;;;;;;;;5079563;28;19904;-88
2022/06/15 01:48:11;;;;;;;;;;;;;;;;;;5079572;28;19907;-87
2022/06/15 01:50:39;;;;;;;;;;;;;;;;;;5079852;28;19950;-85
2022/06/15 01:53:05;;;;;;;;;;;;;;;;;;5079484;28;19943;-84
2022/06/15 01:55:30;;;;;;;;;;;;;;;;;;5078804;28;19973;-88
2022/06/15 01:57:55;;;;;;;;;;;;;;;;;;5079063;28;20002;-86
2022/06/15 02:00:20;;;;;;;;;;;;;;;;;;5079044;28;19910;-85
2022/06/15 02:02:47;;;;;;;;;;;;;;;;;;5079526;28;19942;-85
2022/06/15 02:05:13;;;;;;;;;;;;;;;;;;5078993;28;20004;-87
2022/06/15 02:07:38;;;;;;;;;;;;;;;;;;5079365;28;19984;-87
2022/06/15 02:10:03;;;;;;;;;;;;;;;;;;5078864;28;20269;-84
2022/06/15 02:12:28;;;;;;;;;;;;;;;;;;5079152;28;19969;-86
2022/06/15 02:14:54;;;;;;;;;;;;;;;;;;5079316;28;19949;-86
2022/06/15 02:17:20;;;;;;;;;;;;;;;;;;5079460;28;19914;-86
2022/06/15 02:19:45;;;;;;;;;;;;;;;;;;5079345;28;20339;-86
2022/06/15 02:22:12;;;;;;;;;;;;;;;;;;5081058;28;19907;-86
2022/06/15 02:24:37;;;;;;;;;;;;;;;;;;5082542;28;19918;-87
2022/06/15 02:27:02;;;;;;;;;;;;;;;;;;5082889;28;19915;-87
2022/06/15 02:29:28;;;;;;;;;;;;;;;;;;5082508;28;20354;-87
2022/06/15 02:31:53;;;;;;;;;;;;;;;;;;5082344;28;19916;-87
2022/06/15 02:34:18;;;;;;;;;;;;;;;;;;5099504;28;20282;-85
2022/06/15 02:36:44;;;;;;;;;;;;;;;;;;5082391;28;19908;-85
2022/06/15 02:39:12;;;;;;;;;;;;;;;;;;5082770;28;19904;-87
2022/06/15 02:41:37;;;;;;;;;;;;;;;;;;5082563;28;20007;-86
2022/06/15 02:44:04;;;;;;;;;;;;;;;;;;5082507;28;19911;-84
2022/06/15 02:46:30;;;;;;;;;;;;;;;;;;5082874;28;19907;-86
2022/06/15 02:48:56;;;;;;;;;;;;;;;;;;5082396;28;19903;-87
2022/06/15 02:51:21;;;;;;;;;;;;;;;;;;5082270;28;19914;-87
2022/06/15 02:53:52;;;;;;;;;;;;;;;;;;5083162;28;19904;-87
2022/06/15 02:56:19;;;;;;;;;;;;;;;;;;5082226;28;19956;-87
2022/06/15 02:58:44;;;;;;;;;;;;;;;;;;5082278;28;19903;-85
2022/06/15 03:01:10;;;;;;;;;;;;;;;;;;5082439;28;19907;-86
2022/06/15 03:03:36;;;;;;;;;;;;;;;;;;5082062;28;19935;-87
2022/06/15 03:06:11;;;;;;;;;;;;;;;;;;5083451;28;20350;-86
2022/06/15 03:08:37;;;;;;;;;;;;;;;;;;5098896;28;19908;-85
2022/06/15 03:11:07;;;;;;;;;;;;;;;;;;5083070;28;19904;-87
2022/06/15 03:13:32;;;;;;;;;;;;;;;;;;5082148;28;19914;-86
2022/06/15 03:15:59;;;;;;;;;;;;;;;;;;5082374;28;19947;-87
2022/06/15 03:18:24;;;;;;;;;;;;;;;;;;5081774;28;20031;-86
2022/06/15 03:20:52;;;;;;;;;;;;;;;;;;5081942;28;20020;-86
2022/06/15 03:23:17;;;;;;;;;;;;;;;;;;5081536;28;20355;-87
2022/06/15 03:25:44;;;;;;;;;;;;;;;;;;5081485;28;19926;-85
2022/06/15 03:28:10;;;;;;;;;;;;;;;;;;5081425;28;20381;-86
2022/06/15 03:30:38;;;;;;;;;;;;;;;;;;5081548;28;19956;-85
2022/06/15 03:33:06;;;;;;;;;;;;;;;;;;5080279;28;20007;-87
2022/06/15 03:35:34;;;;;;;;;;;;;;;;;;5081500;28;19935;-86
2022/06/15 03:38:08;;;;;;;;;;;;;;;;;;5082096;28;19907;-86
2022/06/15 03:40:35;;;;;;;;;;;;;;;;;;5081872;28;19963;-87
2022/06/15 03:43:01;;;;;;;;;;;;;;;;;;5081266;28;19998;-86
2022/06/15 03:45:28;;;;;;;;;;;;;;;;;;5081288;28;20401;-86
2022/06/15 03:47:57;;;;;;;;;;;;;;;;;;5081105;28;19903;-85
2022/06/15 03:50:23;;;;;;;;;;;;;;;;;;5080993;28;19915;-84
2022/06/15 03:52:50;;;;;;;;;;;;;;;;;;5086830;27;19956;-88
2022/06/15 03:55:15;;;;;;;;;;;;;;;;;;5092644;27;19911;-88
2022/06/15 03:57:40;;;;;;;;;;;;;;;;;;5091023;27;19911;-85
2022/06/15 04:00:11;;;;;;;;;;;;;;;;;;5092403;27;19915;-87
2022/06/15 04:02:48;;;;;;;;;;;;;;;;;;5113701;27;19952;-86
2022/06/15 04:05:23;;;;;;;;;;;;;;;;;;5103352;27;19965;-88
2022/06/15 04:10:33;;;;;;;;;;;;;;;;;;5118156;27;19957;-84
2022/06/15 04:13:00;;;;;;;;;;;;;;;;;;5101580;27;19903;-88
2022/06/15 04:15:25;;;;;;;;;;;;;;;;;;5100965;27;19915;-86
2022/06/15 04:17:52;;;;;;;;;;;;;;;;;;5100231;27;19903;-88
2022/06/15 04:20:34;;;;;;;;;;;;;;;;;;5102869;27;19911;-88
2022/06/15 04:23:14;;;;;;;;;;;;;;;;;;5103103;27;20358;-85
2022/06/15 04:25:41;;;;;;;;;;;;;;;;;;5100953;27;19915;-85
2022/06/15 04:28:06;;;;;;;;;;;;;;;;;;5100370;27;19903;-87
2022/06/15 04:30:32;;;;;;;;;;;;;;;;;;5098719;27;19908;-87
2022/06/15 04:32:58;;;;;;;;;;;;;;;;;;5098627;27;20048;-87
2022/06/15 04:35:29;;;;;;;;;;;;;;;;;;5100339;27;20369;-88
2022/06/15 04:37:56;;;;;;;;;;;;;;;;;;5100231;27;20384;-88
2022/06/15 04:40:26;;;;;;;;;;;;;;;;;;5100727;27;20373;-88
2022/06/15 04:42:51;;;;;;;;;;;;;;;;;;5100496;27;19908;-86
2022/06/15 04:45:17;;;;;;;;;;;;;;;;;;5100250;27;19911;-86
2022/06/15 04:47:56;;;;;;;;;;;;;;;;;;5102282;27;19917;-86
2022/06/15 04:50:23;;;;;;;;;;;;;;;;;;5100757;27;19997;-88
2022/06/15 04:52:50;;;;;;;;;;;;;;;;;;5100872;27;19903;-87
2022/06/15 04:55:15;;;;;;;;;;;;;;;;;;5100269;27;19975;-87
2022/06/15 04:57:41;;;;;;;;;;;;;;;;;;5100596;27;20414;-86
2022/06/15 05:00:07;;;;;;;;;;;;;;;;;;5100549;27;19907;-87
2022/06/15 05:02:32;;;;;;;;;;;;;;;;;;5100397;27;19904;-87
2022/06/15 05:04:59;;;;;;;;;;;;;;;;;;5100276;27;20377;-88
2022/06/15 05:07:27;;;;;;;;;;;;;;;;;;5100731;27;19910;-87
2022/06/15 05:09:53;;;;;;;;;;;;;;;;;;5099875;28;19907;-87
2022/06/15 05:12:18;;;;;;;;;;;;;;;;;;5099728;27;19904;-86
2022/06/15 05:14:47;;;;;;;;;;;;;;;;;;5100181;28;19911;-88
2022/06/15 05:17:13;;;;;;;;;;;;;;;;;;5100177;28;19904;-86
2022/06/15 05:19:38;;;;;;;;;;;;;;;;;;5099510;28;20083;-84
2022/06/15 05:22:04;;;;;;;;;;;;;;;;;;5099589;28;19903;-85
2022/06/15 05:24:31;;;;;;;;;;;;;;;;;;5099896;28;19915;-85
2022/06/15 05:26:58;;;;;;;;;;;;;;;;;;5100182;28;19903;-84
2022/06/15 05:29:25;;;;;;;;;;;;;;;;;;5099767;28;19907;-84
2022/06/15 05:31:58;;;;;;;;;;;;;;;;;;5100339;28;19916;-83
2022/06/15 05:34:24;;;;;;;;;;;;;;;;;;5099548;28;20403;-84
2022/06/15 05:36:49;;;;;;;;;;;;;;;;;;5116471;28;19910;-82
2022/06/15 05:39:15;;;;;;;;;;;;;;;;;;5099556;28;20422;-82
2022/06/15 05:41:42;;;;;;;;;;;;;;;;;;5099704;28;19903;-84
2022/06/15 05:46:54;;;;;;;;;;;;;;;;;;5116104;28;19907;-84
2022/06/15 05:49:27;;;;;;;;;;;;;;;;;;5100441;28;19904;-83
2022/06/15 05:51:53;;;;;;;;;;;;;;;;;;5099387;28;19914;-84
2022/06/15 05:54:20;;;;;;;;;;;;;;;;;;5099776;28;19903;-86
2022/06/15 05:56:45;;;;;;;;;;;;;;;;;;5100324;27;20388;-85
2022/06/15 05:59:10;;;;;;;;;;;;;;;;;;5103381;27;19903;-82
2022/06/15 06:01:40;;;;;;;;;;;;;;;;;;5120986;27;19908;-86
2022/06/15 06:04:06;;;;;;;;;;;;;;;;;;5103110;27;19919;-85
2022/06/15 06:06:34;;;;;;;;;;;;;;;;;;5103294;27;19903;-87
2022/06/15 06:09:00;;;;;;;;;;;;;;;;;;5103741;27;20372;-85
2022/06/15 06:11:25;;;;;;;;;;;;;;;;;;5103494;27;19907;-87
2022/06/15 06:13:53;;;;;;;;;;;;;;;;;;5103815;27;20361;-90
2022/06/15 06:16:27;;;;;;;;;;;;;;;;;;5104686;27;19952;-88
2022/06/15 06:19:03;;;;;;;;;;;;;;;;;;5121961;27;19914;-87
2022/06/15 06:21:28;;;;;;;;;;;;;;;;;;5103206;27;20006;-83
2022/06/15 06:23:53;;;;;;;;;;;;;;;;;;5137868;27;19918;-88
2022/06/15 06:26:21;;;;;;;;;;;;;;;;;;5103028;27;20413;-87
2022/06/15 06:28:46;;;;;;;;;;;;;;;;;;5103113;27;19995;-84
2022/06/15 06:31:12;;;;;;;;;;;;;;;;;;5102891;27;19951;-86
2022/06/15 06:33:39;;;;;;;;;;;;;;;;;;5103141;27;19908;-87
2022/06/15 06:36:05;;;;;;;;;;;;;;;;;;5102709;27;20183;-87
2022/06/15 06:38:30;;;;;;;;;;;;;;;;;;5103265;27;19950;-89
2022/06/15 06:40:56;;;;;;;;;;;;;;;;;;5103275;27;19947;-88
2022/06/15 06:43:21;;;;;;;;;;;;;;;;;;5102878;27;19952;-88
2022/06/15 06:45:46;;;;;;;;;;;;;;;;;;5102793;27;19907;-87
2022/06/15 06:48:14;;;;;;;;;;;;;;;;;;5102912;27;19903;-92
2022/06/15 06:50:40;;;;;;;;;;;;;;;;;;5103395;27;19914;-88
2022/06/15 06:53:05;;;;;;;;;;;;;;;;;;5102901;27;19907;-89
2022/06/15 06:58:22;;;;;;;;;;;;;;;;;;5110265;27;19908;-86
2022/06/15 07:00:56;;;;;;;;;;;;;;;;;;5103174;27;19907;-89
2022/06/15 07:03:22;;;;;;;;;;;;;;;;;;5101968;27;19915;-85
2022/06/15 07:05:47;;;;;;;;;;;;;;;;;;5119195;27;19903;-86
2022/06/15 07:08:15;;;;;;;;;;;;;;;;;;5101924;27;19914;-85
2022/06/15 07:10:43;;;;;;;;;;;;;;;;;;5101858;27;19910;-87
2022/06/15 07:13:08;;;;;;;;;;;;;;;;;;5102279;27;20349;-85
2022/06/15 07:15:37;;;;;;;;;;;;;;;;;;5101424;27;19910;-85
2022/06/15 07:18:02;;;;;;;;;;;;;;;;;;5100969;27;19915;-84
2022/06/15 07:20:28;;;;;;;;;;;;;;;;;;5100717;27;19904;-83
2022/06/15 07:22:54;;;;;;;;;;;;;;;;;;5100667;27;20438;-84
2022/06/15 07:25:19;;;;;;;;;;;;;;;;;;5100279;27;19919;-85
2022/06/15 07:27:54;;;;;;;;;;;;;;;;;;5102094;27;19907;-87
2022/06/15 07:30:19;;;;;;;;;;;;;;;;;;5100845;27;19933;-83
2022/06/15 07:32:45;;;;;;;;;;;;;;;;;;5100336;27;19919;-85
2022/06/15 07:35:10;;;;;;;;;;;;;;;;;;5100454;27;20277;-82
2022/06/15 07:37:35;;;;;;;;;;;;;;;;;;5100417;27;20376;-85
2022/06/15 07:40:01;;;;;;;;;;;;;;;;;;5100145;27;20005;-85
2022/06/15 07:42:26;;;;;;;;;;;;;;;;;;5099763;27;19903;-84
2022/06/15 07:44:52;;;;;;;;;;;;;;;;;;5136252;27;19922;-84
2022/06/15 07:50:02;;;;;;;;;;;;;;;;;;5116866;27;19956;-85
2022/06/15 07:52:27;;;;;;;;;;;;;;;;;;5117310;27;19903;-84
2022/06/15 07:54:52;;;;;;;;;;;;;;;;;;5099915;27;19907;-84
2022/06/15 07:57:17;;;;;;;;;;;;;;;;;;5099632;27;19903;-85
2022/06/15 07:59:43;;;;;;;;;;;;;;;;;;5099900;27;19922;-83
2022/06/15 08:02:08;;;;;;;;;;;;;;;;;;5099623;27;19986;-82
2022/06/15 08:04:33;;;;;;;;;;;;;;;;;;5099456;27;19922;-85
2022/06/15 08:06:58;;;;;;;;;;;;;;;;;;5099384;27;20350;-84
2022/06/15 08:09:24;;;;;;;;;;;;;;;;;;5099175;27;19956;-85
2022/06/15 08:14:33;;;;;;;;;;;;;;;;;;5116346;27;20052;-81
2022/06/15 08:16:58;;;;;;;;;;;;;;;;;;5099078;27;19950;-85
2022/06/15 08:19:24;;;;;;;;;;;;;;;;;;5098623;27;19907;-83
2022/06/15 08:21:49;;;;;;;;;;;;;;;;;;5099202;27;20370;-84
2022/06/15 08:24:14;;;;;;;;;;;;;;;;;;5098917;27;19915;-84
2022/06/15 08:26:41;;;;;;;;;;;;;;;;;;5099243;27;20398;-83
2022/06/15 08:29:06;;;;;;;;;;;;;;;;;;5098068;27;19913;-84
2022/06/15 08:31:32;;;;;;;;;;;;;;;;;;5097347;27;20014;-84
2022/06/15 08:33:57;;;;;;;;;;;;;;;;;;5115364;27;19914;-84
2022/06/15 08:36:22;;;;;;;;;;;;;;;;;;5097786;27;19965;-81
2022/06/15 08:38:48;;;;;;;;;;;;;;;;;;5098782;27;20010;-83
2022/06/15 08:41:13;;;;;;;;;;;;;;;;;;5098700;27;20371;-84
2022/06/15 08:43:38;;;;;;;;;;;;;;;;;;5098543;27;19907;-81
2022/06/15 08:46:04;;;;;;;;;;;;;;;;;;5098567;27;20277;-84
2022/06/15 08:48:29;;;;;;;;;;;;;;;;;;5098608;27;19914;-82
2022/06/15 08:50:54;;;;;;;;;;;;;;;;;;5098258;27;19904;-83
2022/06/15 08:53:20;;;;;;;;;;;;;;;;;;5098674;27;20273;-86
2022/06/15 08:55:45;;;;;;;;;;;;;;;;;;5134463;27;19908;-82
2022/06/15 08:58:11;;;;;;;;;;;;;;;;;;5098569;28;20357;-82
2022/06/15 09:00:37;;;;;;;;;;;;;;;;;;5098636;27;19903;-81
2022/06/15 09:03:02;;;;;;;;;;;;;;;;;;5098631;27;19942;-84
2022/06/15 09:05:27;;;;;;;;;;;;;;;;;;5098350;27;20357;-82
2022/06/15 09:07:53;;;;;;;;;;;;;;;;;;5115484;28;19907;-84
2022/06/15 09:10:18;;;;;;;;;;;;;;;;;;5098396;27;19903;-84
2022/06/15 09:12:49;;;;;;;;;;;;;;;;;;5098108;28;19954;-83
2022/06/15 09:15:14;;;;;;;;;;;;;;;;;;5098427;27;20281;-83
2022/06/15 09:17:40;;;;;;;;;;;;;;;;;;5098420;28;19903;-82
2022/06/15 09:20:05;;;;;;;;;;;;;;;;;;5098407;28;19942;-83
2022/06/15 09:22:30;;;;;;;;;;;;;;;;;;5098203;28;19907;-83
2022/06/15 09:24:56;;;;;;;;;;;;;;;;;;5098367;28;19921;-84
2022/06/15 09:27:21;;;;;;;;;;;;;;;;;;5115301;28;19903;-84
2022/06/15 09:29:46;;;;;;;;;;;;;;;;;;5098287;28;19907;-83
2022/06/15 09:32:12;;;;;;;;;;;;;;;;;;5085628;28;19924;-82
2022/06/15 09:34:38;;;;;;;;;;;;;;;;;;5078776;28;19915;-83
2022/06/15 09:37:03;;;;;;;;;;;;;;;;;;5078811;28;19904;-84
2022/06/15 09:39:28;;;;;;;;;;;;;;;;;;5078698;28;20022;-83
2022/06/15 09:41:54;;;;;;;;;;;;;;;;;;5078663;28;20003;-84
2022/06/15 09:44:19;;;;;;;;;;;;;;;;;;5078606;28;19939;-82
2022/06/15 09:46:44;;;;;;;;;;;;;;;;;;5078518;28;20330;-82
2022/06/15 09:49:10;;;;;;;;;;;;;;;;;;5078590;28;20120;-83
2022/06/15 09:51:35;;;;;;;;;;;;;;;;;;5078416;28;19908;-84
2022/06/15 09:54:00;;;;;;;;;;;;;;;;;;5078385;28;19912;-81
2022/06/15 09:56:25;;;;;;;;;;;;;;;;;;5078502;28;19953;-83
2022/06/15 09:58:51;;;;;;;;;;;;;;;;;;5095341;28;19908;-83
2022/06/15 10:01:17;;;;;;;;;;;;;;;;;;5095299;28;19970;-84
2022/06/15 10:03:46;;;;;;;;;;;;;;;;;;5078595;28;20381;-85
2022/06/15 10:06:11;;;;;;;;;;;;;;;;;;5078345;28;20487;-84
2022/06/15 10:08:36;;;;;;;;;;;;;;;;;;5078249;28;19908;-82
2022/06/15 10:11:02;;;;;;;;;;;;;;;;;;5096191;28;20007;-83
2022/06/15 10:13:28;;;;;;;;;;;;;;;;;;5078445;28;20009;-84
2022/06/15 10:15:54;;;;;;;;;;;;;;;;;;5095656;28;19925;-83
2022/06/15 10:18:19;;;;;;;;;;;;;;;;;;5078024;28;20010;-87
2022/06/15 10:20:44;;;;;;;;;;;;;;;;;;5078089;28;19920;-82
2022/06/15 10:23:10;;;;;;;;;;;;;;;;;;5094677;28;20354;-83
2022/06/15 10:25:35;;;;;;;;;;;;;;;;;;5077797;28;19916;-81
2022/06/15 10:28:00;;;;;;;;;;;;;;;;;;5077778;28;19943;-84
2022/06/15 10:30:26;;;;;;;;;;;;;;;;;;5094785;28;20243;-82
2022/06/15 10:32:51;;;;;;;;;;;;;;;;;;5094606;28;19916;-81
2022/06/15 10:35:17;;;;;;;;;;;;;;;;;;5077749;28;20314;-83
2022/06/15 10:37:42;;;;;;;;;;;;;;;;;;5094442;28;19908;-82
2022/06/15 10:40:08;;;;;;;;;;;;;;;;;;5094498;28;19969;-82
2022/06/15 10:42:33;;;;;;;;;;;;;;;;;;5076678;28;20312;-82
2022/06/15 10:44:58;;;;;;;;;;;;;;;;;;5077470;28;19912;-81
2022/06/15 10:47:23;;;;;;;;;;;;;;;;;;5077505;28;19915;-83
2022/06/15 10:49:49;;;;;;;;;;;;;;;;;;5077335;28;19946;-83
2022/06/15 10:52:14;;;;;;;;;;;;;;;;;;5077322;28;19950;-82
2022/06/15 11:02:52;;;;;;;;;;;;;;;;;;5073348;28;19957;-84
2022/06/15 11:05:17;;;;;;;;;;;;;;;;;;5072892;28;19916;-83
2022/06/15 11:07:43;;;;;;;;;;;;;;;;;;5073469;28;20418;-82
2022/06/15 11:10:08;;;;;;;;;;;;;;;;;;5073638;28;19912;-81
2022/06/15 11:12:33;;;;;;;;;;;;;;;;;;5074983;28;20279;-82
2022/06/15 11:14:59;;;;;;;;;;;;;;;;;;5073055;28;19911;-81
2022/06/15 11:20:09;;;;;;;;;;;;;;;;;;5073192;28;19912;-82
2022/06/15 11:22:34;;;;;;;;;;;;;;;;;;5073392;28;19911;-83
2022/06/15 11:25:00;;;;;;;;;;;;;;;;;;5074959;28;20015;-84
2022/06/15 11:27:26;;;;;;;;;;;;;;;;;;5073352;28;19908;-84
2022/06/15 11:29:52;;;;;;;;;;;;;;;;;;5073243;28;19916;-83
2022/06/15 11:32:18;;;;;;;;;;;;;;;;;;5072959;28;19917;-86
2022/06/15 11:34:43;;;;;;;;;;;;;;;;;;5073203;28;19915;-85
2022/06/15 11:37:08;;;;;;;;;;;;;;;;;;5073011;28;20286;-84
2022/06/15 11:39:34;;;;;;;;;;;;;;;;;;5073084;28;19908;-83
2022/06/15 11:41:59;;;;;;;;;;;;;;;;;;5072863;28;20373;-84
2022/06/15 11:44:24;;;;;;;;;;;;;;;;;;5072604;28;19982;-83
2022/06/15 11:46:50;;;;;;;;;;;;;;;;;;5072771;28;19904;-83
2022/06/15 11:49:15;;;;;;;;;;;;;;;;;;5072898;28;19912;-81
2022/06/15 11:51:40;;;;;;;;;;;;;;;;;;5072797;28;20012;-82
2022/06/15 11:54:06;;;;;;;;;;;;;;;;;;5071625;28;19912;-82
2022/06/15 11:56:31;;;;;;;;;;;;;;;;;;5073209;28;20343;-83
2022/06/15 11:58:56;;;;;;;;;;;;;;;;;;5072228;28;20006;-84
2022/06/15 12:01:21;;;;;;;;;;;;;;;;;;5055874;28;19911;-83
2022/06/15 12:03:47;;;;;;;;;;;;;;;;;;5072468;28;19908;-82
2022/06/15 12:06:12;;;;;;;;;;;;;;;;;;5073721;28;20309;-81
2022/06/15 12:08:37;;;;;;;;;;;;;;;;;;5072514;28;19934;-82
2022/06/15 12:11:02;;;;;;;;;;;;;;;;;;5055720;28;19904;-83
2022/06/15 12:13:28;;;;;;;;;;;;;;;;;;5072397;28;20270;-81
2022/06/15 12:15:53;;;;;;;;;;;;;;;;;;5055765;28;19904;-81
2022/06/15 12:18:18;;;;;;;;;;;;;;;;;;5072406;28;19909;-82
2022/06/15 12:20:44;;;;;;;;;;;;;;;;;;5055636;28;19954;-83
2022/06/15 12:23:09;;;;;;;;;;;;;;;;;;5072157;28;19908;-82
2022/06/15 12:25:34;;;;;;;;;;;;;;;;;;5055447;28;19913;-82
2022/06/15 12:28:00;;;;;;;;;;;;;;;;;;5072138;28;19954;-82
2022/06/15 12:30:26;;;;;;;;;;;;;;;;;;5055553;28;19915;-82
2022/06/15 12:32:52;;;;;;;;;;;;;;;;;;5088758;28;19998;-85
2022/06/15 12:35:17;;;;;;;;;;;;;;;;;;5075383;28;20054;-86
2022/06/15 12:37:45;;;;;;;;;;;;;;;;;;5075517;28;19908;-83
2022/06/15 12:40:13;;;;;;;;;;;;;;;;;;5076334;28;20358;-82
2022/06/15 12:42:39;;;;;;;;;;;;;;;;;;5092299;28;19954;-86
2022/06/15 12:45:04;;;;;;;;;;;;;;;;;;5075142;28;19980;-84
2022/06/15 12:47:29;;;;;;;;;;;;;;;;;;5075172;28;19908;-85
2022/06/15 12:49:55;;;;;;;;;;;;;;;;;;5075270;28;19904;-86
2022/06/15 12:52:20;;;;;;;;;;;;;;;;;;5075287;28;20270;-85
2022/06/15 12:54:45;;;;;;;;;;;;;;;;;;5092092;28;20277;-85
2022/06/15 12:57:11;;;;;;;;;;;;;;;;;;5074908;28;19908;-83
2022/06/15 12:59:36;;;;;;;;;;;;;;;;;;5075027;28;19904;-84
2022/06/15 13:02:02;;;;;;;;;;;;;;;;;;5093018;28;19908;-86
2022/06/15 13:04:27;;;;;;;;;;;;;;;;;;5074927;28;19916;-82
2022/06/15 13:06:53;;;;;;;;;;;;;;;;;;5091898;28;20002;-82
2022/06/15 13:09:18;;;;;;;;;;;;;;;;;;5076159;28;19904;-83
2022/06/15 13:11:44;;;;;;;;;;;;;;;;;;5093098;28;19915;-81
2022/06/15 13:14:10;;;;;;;;;;;;;;;;;;5093574;28;20311;-83
2022/06/15 13:16:35;;;;;;;;;;;;;;;;;;5093800;28;19912;-82
2022/06/15 13:19:00;;;;;;;;;;;;;;;;;;5076094;28;19904;-83
2022/06/15 13:21:26;;;;;;;;;;;;;;;;;;5075107;28;20011;-81
2022/06/15 13:23:51;;;;;;;;;;;;;;;;;;5091680;28;19904;-83
2022/06/15 13:26:16;;;;;;;;;;;;;;;;;;5092706;28;19915;-81
2022/06/15 13:28:41;;;;;;;;;;;;;;;;;;5092657;28;19904;-83
2022/06/15 13:31:07;;;;;;;;;;;;;;;;;;5077814;28;20273;-81
2022/06/15 13:33:32;;;;;;;;;;;;;;;;;;5096102;28;20358;-83
2022/06/15 13:35:57;;;;;;;;;;;;;;;;;;5096517;28;19977;-82
2022/06/15 13:38:23;;;;;;;;;;;;;;;;;;5079394;28;19915;-83
2022/06/15 13:40:48;;;;;;;;;;;;;;;;;;5079183;28;19953;-81
2022/06/15 13:43:14;;;;;;;;;;;;;;;;;;5079049;28;19904;-82
2022/06/15 13:45:39;;;;;;;;;;;;;;;;;;5079021;28;19985;-83
2022/06/15 13:48:04;;;;;;;;;;;;;;;;;;5078955;28;19911;-83
2022/06/15 13:50:29;;;;;;;;;;;;;;;;;;5079041;28;19908;-83
2022/06/15 13:52:55;;;;;;;;;;;;;;;;;;5078987;28;19904;-81
2022/06/15 13:55:20;;;;;;;;;;;;;;;;;;5078856;28;19908;-82
2022/06/15 13:57:45;;;;;;;;;;;;;;;;;;5095586;28;20471;-82
2022/06/15 14:00:11;;;;;;;;;;;;;;;;;;5095839;28;19908;-82
2022/06/15 14:02:36;;;;;;;;;;;;;;;;;;5091157;28;19908;-83
2022/06/15 14:05:01;;;;;;;;;;;;;;;;;;5084251;28;20030;-83
2022/06/15 14:07:28;;;;;;;;;;;;;;;;;;4986295;28;19908;-82
2022/06/15 14:09:53;;;;;;;;;;;;;;;;;;5011895;28;20434;-81
2022/06/15 14:12:18;;;;;;;;;;;;;;;;;;5057346;28;19908;-83
2022/06/15 14:14:44;;;;;;;;;;;;;;;;;;5108606;28;19908;-81
2022/06/15 14:17:09;;;;;;;;;;;;;;;;;;5076758;28;19904;-82
2022/06/15 14:19:34;;;;;;;;;;;;;;;;;;4967270;28;20002;-82
2022/06/15 14:21:59;;;;;;;;;;;;;;;;;;5091227;28;19907;-82
2022/06/15 14:24:25;;;;;;;;;;;;;;;;;;5073376;28;20103;-84
2022/06/15 14:26:50;;;;;;;;;;;;;;;;;;5088901;28;19904;-82
2022/06/15 14:29:15;;;;;;;;;;;;;;;;;;5079322;28;19970;-81
2022/06/15 14:31:40;;;;;;;;;;;;;;;;;;5079565;28;19915;-84
2022/06/15 14:34:06;;;;;;;;;;;;;;;;;;5074554;28;19968;-84
2022/06/15 14:36:31;;;;;;;;;;;;;;;;;;5072762;28;19957;-83
2022/06/15 14:38:57;;;;;;;;;;;;;;;;;;5073025;28;19908;-84
2022/06/15 14:41:22;;;;;;;;;;;;;;;;;;5077753;28;20044;-85
2022/06/15 14:43:48;;;;;;;;;;;;;;;;;;5079594;28;19911;-83
2022/06/15 14:46:13;;;;;;;;;;;;;;;;;;5087946;28;20270;-84
2022/06/15 14:48:39;;;;;;;;;;;;;;;;;;5075968;28;19919;-84
2022/06/15 14:51:04;;;;;;;;;;;;;;;;;;5077822;28;19911;-81
2022/06/15 14:53:30;;;;;;;;;;;;;;;;;;5077837;28;19918;-83
2022/06/15 14:55:55;;;;;;;;;;;;;;;;;;5095501;27;19968;-83
2022/06/15 14:58:20;;;;;;;;;;;;;;;;;;5097990;27;20031;-82
2022/06/15 15:00:46;;;;;;;;;;;;;;;;;;5100546;27;19907;-83
2022/06/15 15:03:11;;;;;;;;;;;;;;;;;;5101031;27;20006;-84
2022/06/15 15:05:36;;;;;;;;;;;;;;;;;;5092224;27;19919;-84
2022/06/15 15:08:05;;;;;;;;;;;;;;;;;;5100804;27;20269;-84
2022/06/15 15:10:30;;;;;;;;;;;;;;;;;;5101008;27;20357;-83
2022/06/15 15:12:55;;;;;;;;;;;;;;;;;;5099764;27;19917;-84
2022/06/15 15:15:21;;;;;;;;;;;;;;;;;;5116093;27;19962;-84
2022/06/15 15:17:46;;;;;;;;;;;;;;;;;;5099691;27;19950;-84
2022/06/15 15:20:11;;;;;;;;;;;;;;;;;;5099961;27;20281;-83
2022/06/15 15:22:37;;;;;;;;;;;;;;;;;;5116841;27;19911;-84
2022/06/15 15:25:02;;;;;;;;;;;;;;;;;;5099497;27;19961;-82
2022/06/15 15:34:08;;;;;;;;;;;;;;;;;;5099922;27;19907;-82
2022/06/15 15:35:41;;;;;;;;;;;;;;;;;;5110149;27;19918;-83
2022/06/15 15:38:07;;;;;;;;;;;;;;;;;;5116392;27;20303;-84
2022/06/15 15:40:33;;;;;;;;;;;;;;;;;;5116268;27;19907;-81
2022/06/15 15:42:58;;;;;;;;;;;;;;;;;;5099610;27;20273;-83
2022/06/15 15:45:24;;;;;;;;;;;;;;;;;;5099144;27;19915;-83
2022/06/15 15:47:49;;;;;;;;;;;;;;;;;;5117727;27;20258;-82
2022/06/15 15:50:15;;;;;;;;;;;;;;;;;;5100877;27;19914;-83
2022/06/15 15:52:40;;;;;;;;;;;;;;;;;;5117879;27;19904;-83
2022/06/15 15:55:05;;;;;;;;;;;;;;;;;;5117925;27;19946;-83
2022/06/15 15:57:30;;;;;;;;;;;;;;;;;;5117839;27;19910;-83
2022/06/15 15:59:56;;;;;;;;;;;;;;;;;;5117911;27;20262;-83
2022/06/15 16:02:21;;;;;;;;;;;;;;;;;;5100419;27;19911;-83
2022/06/15 16:04:46;;;;;;;;;;;;;;;;;;5117725;27;19923;-86
2022/06/15 16:07:13;;;;;;;;;;;;;;;;;;5100937;27;19935;-84
2022/06/15 16:09:38;;;;;;;;;;;;;;;;;;5100888;27;19908;-83
2022/06/15 16:12:05;;;;;;;;;;;;;;;;;;5118042;27;20380;-85
2022/06/15 16:14:30;;;;;;;;;;;;;;;;;;5100979;27;19907;-84
2022/06/15 16:16:55;;;;;;;;;;;;;;;;;;5100662;27;19911;-84
2022/06/15 16:19:20;;;;;;;;;;;;;;;;;;5117539;27;19907;-85
2022/06/15 16:21:47;;;;;;;;;;;;;;;;;;5100537;27;20303;-84
2022/06/15 16:24:12;;;;;;;;;;;;;;;;;;5117431;27;19915;-83
2022/06/15 16:26:37;;;;;;;;;;;;;;;;;;5100420;27;19945;-81
2022/06/15 16:29:03;;;;;;;;;;;;;;;;;;5117246;27;19908;-81
2022/06/15 16:31:28;;;;;;;;;;;;;;;;;;5099833;27;19992;-81
2022/06/15 16:33:54;;;;;;;;;;;;;;;;;;5117250;27;20041;-84
2022/06/15 16:36:19;;;;;;;;;;;;;;;;;;5100098;27;20384;-82
2022/06/15 16:38:44;;;;;;;;;;;;;;;;;;5099888;27;19907;-82
2022/06/15 16:41:13;;;;;;;;;;;;;;;;;;5135004;27;19958;-83
2022/06/15 16:43:38;;;;;;;;;;;;;;;;;;5100031;27;20339;-84
2022/06/15 16:46:03;;;;;;;;;;;;;;;;;;5116753;27;19946;-83
2022/06/15 16:48:29;;;;;;;;;;;;;;;;;;5135429;27;19998;-81
2022/06/15 16:50:54;;;;;;;;;;;;;;;;;;5117413;27;19910;-83
2022/06/15 16:53:20;;;;;;;;;;;;;;;;;;5116672;27;19915;-84
2022/06/15 16:55:46;;;;;;;;;;;;;;;;;;5116984;27;19910;-83
2022/06/15 16:58:12;;;;;;;;;;;;;;;;;;5121749;27;19907;-84
2022/06/15 17:00:37;;;;;;;;;;;;;;;;;;5116076;27;20043;-83
2022/06/15 17:03:03;;;;;;;;;;;;;;;;;;5116792;27;19907;-83
2022/06/15 17:05:28;;;;;;;;;;;;;;;;;;5099574;28;20377;-80
2022/06/15 17:07:53;;;;;;;;;;;;;;;;;;5116877;28;19918;-83